createdAt,value
2023-04-14T00:01:02.487Z,22.50
2023-04-14T00:03:34.263Z,22.50
2023-04-14T00:06:05.696Z,22.50
2023-04-14T00:08:36.858Z,22.50
2023-04-14T00:11:08.710Z,22.50
2023-04-14T00:13:40.114Z,22.50
2023-04-14T00:16:13.396Z,22.50
2023-04-14T00:18:44.812Z,22.40
2023-04-14T00:21:16.061Z,22.60
2023-04-14T00:23:47.698Z,22.80
2023-04-14T00:26:18.928Z,22.60
2023-04-14T00:28:51.890Z,22.70
2023-04-14T00:31:23.407Z,23.10
2023-04-14T00:33:55.758Z,23.00
2023-04-14T00:36:27.556Z,23.20
2023-04-14T00:38:59.054Z,23.20
2023-04-14T00:41:38.390Z,23.20
2023-04-14T00:44:09.744Z,23.20
2023-04-14T00:46:45.747Z,23.30
2023-04-14T00:49:18.610Z,23.30
2023-04-14T00:51:50.887Z,23.30
2023-04-14T00:54:22.862Z,23.50
2023-04-14T00:56:55.983Z,23.50
2023-04-14T00:59:27.664Z,23.60
2023-04-14T01:02:01.090Z,23.60
2023-04-14T01:04:49.235Z,23.60
2023-04-14T01:07:26.538Z,23.60
2023-04-14T01:09:59.245Z,23.70
2023-04-14T01:12:48.922Z,23.60
2023-04-14T01:15:38.435Z,23.80
2023-04-14T01:18:55.525Z,23.90
2023-04-14T01:21:31.689Z,23.90
2023-04-14T01:24:16.229Z,23.90
2023-04-14T01:26:49.569Z,23.90
2023-04-14T01:29:36.143Z,23.90
2023-04-14T01:32:24.053Z,24.00
2023-04-14T01:35:14.820Z,24.00
2023-04-14T01:37:54.940Z,23.90
2023-04-14T01:40:34.448Z,24.10
2023-04-14T01:43:13.313Z,24.20
2023-04-14T01:45:51.444Z,24.20
2023-04-14T01:48:23.091Z,24.30
2023-04-14T01:50:55.418Z,24.30
2023-04-14T01:53:29.284Z,24.50
2023-04-14T01:56:02.337Z,24.40
2023-04-14T01:58:35.262Z,24.50
2023-04-14T02:01:08.174Z,24.50
2023-04-14T02:03:40.351Z,24.60
2023-04-14T02:06:16.544Z,24.70
2023-04-14T02:08:48.965Z,24.70
2023-04-14T02:11:22.559Z,24.70
2023-04-14T02:13:56.811Z,24.60
2023-04-14T02:16:29.259Z,24.50
2023-04-14T02:19:06.199Z,24.60
2023-04-14T02:21:40.066Z,24.70
2023-04-14T02:24:13.356Z,24.60
2023-04-14T02:26:57.740Z,24.60
2023-04-14T02:29:30.776Z,24.70
2023-04-14T02:32:08.234Z,24.80
2023-04-14T02:34:49.873Z,24.70
2023-04-14T02:37:27.486Z,24.70
2023-04-14T02:40:03.815Z,24.70
2023-04-14T02:42:37.805Z,24.80
2023-04-14T02:45:35.013Z,24.80
2023-04-14T02:48:11.231Z,24.80
2023-04-14T02:50:51.885Z,24.80
2023-04-14T02:53:29.075Z,24.90
2023-04-14T02:56:10.183Z,24.90
2023-04-14T02:58:45.231Z,24.90
2023-04-14T03:01:20.365Z,24.80
2023-04-14T03:03:57.770Z,24.60
2023-04-14T03:06:30.914Z,24.80
2023-04-14T03:09:03.190Z,24.90
2023-04-14T03:11:36.741Z,24.90
2023-04-14T03:14:16.604Z,24.90
2023-04-14T03:16:50.696Z,24.90
2023-04-14T03:19:25.064Z,24.90
2023-04-14T03:22:07.927Z,24.90
2023-04-14T03:24:41.218Z,25.10
2023-04-14T03:27:27.772Z,25.10
2023-04-14T03:30:05.152Z,25.10
2023-04-14T03:32:46.252Z,25.20
2023-04-14T03:35:19.317Z,25.10
2023-04-14T03:37:52.925Z,25.10
2023-04-14T03:40:29.481Z,25.10
2023-04-14T03:43:02.146Z,25.10
2023-04-14T03:45:33.936Z,25.20
2023-04-14T03:48:06.488Z,25.20
2023-04-14T03:50:44.563Z,25.30
2023-04-14T03:53:18.472Z,25.30
2023-04-14T03:55:50.495Z,25.40
2023-04-14T03:58:23.587Z,25.50
2023-04-14T04:01:17.104Z,25.70
2023-04-14T04:03:49.980Z,25.90
2023-04-14T04:06:26.177Z,25.80
2023-04-14T04:09:00.568Z,25.80
2023-04-14T04:11:34.241Z,25.80
2023-04-14T04:14:09.601Z,25.80
2023-04-14T04:16:44.895Z,26.10
2023-04-14T04:19:23.713Z,26.40
2023-04-14T04:22:00.540Z,26.60
2023-04-14T04:24:39.542Z,26.60
2023-04-14T04:27:26.673Z,26.50
2023-04-14T04:30:03.668Z,26.50
2023-04-14T04:32:38.241Z,26.60
2023-04-14T04:35:12.268Z,26.60
2023-04-14T04:37:45.564Z,26.50
2023-04-14T04:40:18.406Z,26.30
2023-04-14T04:42:52.589Z,26.20
2023-04-14T04:46:15.303Z,26.10
2023-04-14T04:48:46.969Z,26.00
2023-04-14T04:51:19.949Z,25.80
2023-04-14T04:53:54.683Z,25.90
2023-04-14T04:56:26.567Z,25.90
2023-04-14T04:59:01.062Z,25.80
2023-04-14T05:01:33.272Z,25.80
2023-04-14T05:04:14.462Z,25.80
2023-04-14T05:06:48.917Z,25.90
2023-04-14T05:09:20.119Z,25.90
2023-04-14T05:11:54.122Z,25.70
2023-04-14T05:14:26.948Z,25.70
2023-04-14T05:16:58.797Z,25.60
2023-04-14T05:19:29.944Z,25.50
2023-04-14T05:22:01.384Z,25.60
2023-04-14T05:24:34.085Z,25.60
2023-04-14T05:27:27.798Z,25.60
2023-04-14T05:29:59.100Z,25.60
2023-04-14T05:32:32.538Z,25.50
2023-04-14T05:35:04.339Z,25.60
2023-04-14T05:37:36.476Z,25.60
2023-04-14T05:40:08.773Z,25.60
2023-04-14T05:42:42.418Z,25.60
2023-04-14T05:45:14.346Z,25.60
2023-04-14T05:47:46.946Z,25.60
2023-04-14T05:50:19.540Z,25.70
2023-04-14T05:52:52.932Z,25.80
2023-04-14T05:55:24.752Z,25.90
2023-04-14T05:58:25.439Z,25.90
2023-04-14T06:01:33.460Z,25.80
2023-04-14T06:04:05.507Z,25.90
2023-04-14T06:06:37.349Z,25.90
2023-04-14T06:09:09.774Z,26.00
2023-04-14T06:11:42.641Z,26.00
2023-04-14T06:14:15.147Z,25.90
2023-04-14T06:17:11.778Z,25.90
2023-04-14T06:19:49.089Z,25.80
2023-04-14T06:22:25.559Z,25.80
2023-04-14T06:25:01.113Z,25.70
2023-04-14T06:27:52.190Z,25.60
2023-04-14T06:30:43.308Z,25.60
2023-04-14T06:33:14.743Z,25.50
2023-04-14T06:35:48.760Z,25.50
2023-04-14T06:38:20.041Z,25.40
2023-04-14T06:40:53.371Z,25.40
2023-04-14T06:43:37.583Z,25.30
2023-04-14T06:46:29.066Z,25.20
2023-04-14T06:49:08.438Z,25.20
2023-04-14T06:51:42.576Z,25.20
2023-04-14T06:54:34.012Z,25.10
2023-04-14T06:57:05.254Z,25.10
2023-04-14T06:59:36.662Z,25.10
2023-04-14T07:02:13.988Z,25.10
2023-04-14T07:04:45.460Z,25.10
2023-04-14T07:07:18.045Z,25.00
2023-04-14T07:10:09.948Z,25.00
2023-04-14T07:12:41.530Z,25.00
2023-04-14T07:15:32.868Z,25.10
2023-04-14T07:18:06.802Z,25.10
2023-04-14T07:20:42.512Z,25.20
2023-04-14T07:23:36.253Z,25.20
2023-04-14T07:26:07.880Z,25.20
2023-04-14T07:28:59.213Z,25.30
2023-04-14T07:31:32.874Z,25.30
2023-04-14T07:34:24.623Z,25.30
2023-04-14T07:36:56.519Z,25.20
2023-04-14T07:39:29.958Z,25.30
2023-04-14T07:45:10.090Z,25.20
2023-04-14T07:47:41.898Z,25.30
2023-04-14T07:50:34.471Z,25.30
2023-04-14T07:53:25.261Z,25.40
2023-04-14T07:55:56.422Z,25.40
2023-04-14T07:58:29.651Z,25.40
2023-04-14T08:01:04.649Z,25.30
2023-04-14T08:03:56.087Z,25.30
2023-04-14T08:06:30.260Z,25.10
2023-04-14T08:09:03.224Z,25.20
2023-04-14T08:11:40.829Z,25.20
2023-04-14T08:14:13.470Z,25.20
2023-04-14T08:16:48.057Z,25.10
2023-04-14T08:19:21.175Z,25.10
2023-04-14T08:21:53.602Z,25.10
2023-04-14T08:24:27.347Z,25.10
2023-04-14T08:27:01.050Z,25.00
2023-04-14T08:29:33.897Z,25.00
2023-04-14T08:32:55.755Z,25.00
2023-04-14T08:35:38.624Z,24.90
2023-04-14T08:38:14.391Z,24.90
2023-04-14T08:41:09.728Z,24.90
2023-04-14T08:43:41.554Z,25.00
2023-04-14T08:46:33.827Z,24.90
2023-04-14T08:49:10.635Z,24.90
2023-04-14T08:54:30.223Z,24.80
2023-04-14T08:57:07.593Z,24.80
2023-04-14T08:59:39.916Z,24.70
2023-04-14T09:02:17.964Z,24.70
2023-04-14T09:04:49.780Z,24.70
2023-04-14T09:07:23.127Z,24.70
2023-04-14T09:09:59.897Z,24.70
2023-04-14T09:12:32.665Z,24.60
2023-04-14T09:15:29.476Z,24.60
2023-04-14T09:18:03.813Z,24.60
2023-04-14T09:21:49.986Z,24.60
2023-04-14T09:24:01.170Z,24.50
2023-04-14T09:26:54.698Z,24.50
2023-04-14T09:29:30.079Z,24.40
2023-04-14T09:32:02.124Z,24.40
2023-04-14T09:34:57.700Z,24.40
2023-04-14T09:37:30.994Z,24.40
2023-04-14T09:40:02.472Z,24.40
2023-04-14T09:42:53.850Z,24.40
2023-04-14T09:45:27.085Z,24.40
2023-04-14T09:48:18.711Z,24.30
2023-04-14T09:51:00.391Z,24.20
2023-04-14T09:53:37.479Z,23.90
2023-04-14T09:56:14.288Z,24.00
2023-04-14T09:58:48.981Z,24.00
2023-04-14T10:01:23.489Z,24.10
2023-04-14T10:03:54.980Z,24.10
2023-04-14T10:06:30.930Z,24.10
2023-04-14T10:09:05.373Z,24.10
2023-04-14T10:11:37.999Z,24.10
2023-04-14T10:14:12.690Z,24.00
2023-04-14T10:16:44.555Z,23.70
2023-04-14T10:19:16.274Z,23.60
2023-04-14T10:21:56.976Z,23.70
2023-04-14T10:24:32.616Z,23.90
2023-04-14T10:27:06.746Z,24.00
2023-04-14T10:29:38.221Z,24.00
2023-04-14T10:32:15.576Z,23.90
2023-04-14T10:35:09.680Z,23.90
2023-04-14T10:38:02.836Z,23.80
2023-04-14T10:40:48.747Z,23.70
2023-04-14T10:43:20.499Z,23.60
2023-04-14T10:45:59.689Z,23.70
2023-04-14T10:48:38.825Z,23.70
2023-04-14T10:51:37.889Z,23.70
2023-04-14T10:54:38.647Z,23.60
2023-04-14T10:57:17.522Z,23.60
2023-04-14T10:59:50.087Z,23.60
2023-04-14T11:02:42.500Z,23.60
2023-04-14T11:05:39.599Z,23.50
2023-04-14T11:08:38.828Z,23.60
2023-04-14T11:11:11.671Z,23.50
2023-04-14T11:14:15.198Z,23.50
2023-04-14T11:17:02.765Z,23.50
2023-04-14T11:19:36.328Z,23.50
2023-04-14T11:22:10.147Z,23.50
2023-04-14T11:24:47.356Z,23.40
2023-04-14T11:27:21.446Z,23.50
2023-04-14T11:30:23.843Z,23.40
2023-04-14T11:35:49.079Z,23.40
2023-04-14T11:38:21.365Z,23.40
2023-04-14T11:41:03.790Z,23.40
2023-04-14T11:43:40.497Z,23.40
2023-04-14T11:46:35.035Z,23.40
2023-04-14T11:49:39.991Z,23.40
2023-04-14T11:52:14.990Z,23.40
2023-04-14T11:54:47.938Z,23.40
2023-04-14T11:57:39.924Z,23.30
2023-04-14T12:00:33.273Z,23.30
2023-04-14T12:03:10.989Z,23.30
2023-04-14T12:05:57.449Z,23.20
2023-04-14T12:08:55.197Z,23.20
2023-04-14T12:11:27.845Z,23.30
2023-04-14T12:14:01.795Z,23.30
2023-04-14T12:16:35.267Z,23.00
2023-04-14T12:19:07.985Z,23.00
2023-04-14T12:21:39.638Z,22.90
2023-04-14T12:24:35.727Z,22.80
2023-04-14T12:27:29.500Z,22.90
2023-04-14T12:30:07.499Z,22.80
2023-04-14T12:32:42.769Z,22.90
2023-04-14T12:35:41.237Z,22.90
2023-04-14T12:38:17.180Z,22.80
2023-04-14T12:41:28.172Z,22.80
2023-04-14T12:44:01.587Z,22.60
2023-04-14T12:46:34.958Z,22.50
2023-04-14T12:49:29.865Z,22.40
2023-04-14T12:52:04.209Z,22.40
2023-04-14T12:54:53.946Z,22.20
2023-04-14T12:57:29.233Z,22.00
2023-04-14T13:00:02.837Z,22.00
2023-04-14T13:02:57.265Z,21.90
2023-04-14T13:05:48.997Z,21.80
2023-04-14T13:08:46.273Z,21.80
2023-04-14T13:11:21.944Z,21.90
2023-04-14T13:14:14.570Z,21.90
2023-04-14T13:16:51.787Z,21.80
2023-04-14T13:19:46.909Z,21.80
2023-04-14T13:22:18.548Z,21.80
2023-04-14T13:25:13.362Z,21.70
2023-04-14T13:27:45.959Z,21.70
2023-04-14T13:30:43.148Z,21.50
2023-04-14T13:33:15.630Z,21.50
2023-04-14T13:35:47.842Z,21.40
2023-04-14T13:38:19.630Z,21.40
2023-04-14T13:40:52.334Z,21.40
2023-04-14T13:43:24.869Z,21.50
2023-04-14T13:46:41.512Z,21.50
2023-04-14T13:49:13.842Z,21.50
2023-04-14T13:51:45.641Z,21.50
2023-04-14T13:54:18.434Z,21.50
2023-04-14T13:57:13.010Z,21.50
2023-04-14T14:02:36.019Z,21.60
2023-04-14T14:05:09.705Z,21.60
2023-04-14T14:14:16.445Z,21.70
2023-04-14T14:16:48.301Z,21.70
2023-04-14T14:20:01.960Z,21.80
2023-04-14T14:22:39.423Z,21.80
2023-04-14T14:25:35.494Z,21.80
2023-04-14T14:28:24.314Z,21.80
2023-04-14T14:30:58.219Z,21.80
2023-04-14T14:33:55.700Z,21.70
2023-04-14T14:36:28.895Z,21.70
2023-04-14T14:39:00.675Z,21.70
2023-04-14T14:41:33.798Z,21.70
2023-04-14T14:44:28.539Z,21.70
2023-04-14T14:47:26.028Z,21.70
2023-04-14T14:50:40.533Z,21.70
2023-04-14T14:54:08.350Z,21.70
2023-04-14T14:56:49.000Z,21.70
2023-04-14T14:59:45.711Z,21.60
2023-04-14T15:02:38.966Z,21.70
2023-04-14T15:05:43.003Z,21.70
2023-04-14T15:11:08.738Z,21.70
2023-04-14T15:13:44.594Z,21.60
2023-04-14T15:16:17.445Z,21.60
2023-04-14T15:18:51.601Z,21.60
2023-04-14T15:21:24.675Z,21.50
2023-04-14T15:24:00.342Z,21.60
2023-04-14T15:26:40.262Z,21.70
2023-04-14T15:29:32.052Z,21.50
2023-04-14T15:32:43.063Z,21.60
2023-04-14T15:35:15.116Z,21.50
2023-04-14T15:37:48.845Z,21.60
2023-04-14T15:40:21.772Z,21.60
2023-04-14T15:43:13.985Z,21.60
2023-04-14T15:45:47.127Z,21.60
2023-04-14T15:48:39.026Z,21.60
2023-04-14T15:51:10.833Z,21.60
2023-04-14T15:54:02.444Z,21.60
2023-04-14T15:56:33.855Z,21.60
2023-04-14T15:59:05.378Z,21.60
2023-04-14T16:01:37.029Z,21.60
2023-04-14T16:04:31.681Z,21.60
2023-04-14T16:07:09.392Z,21.60
2023-04-14T16:09:41.431Z,21.50
2023-04-14T16:12:32.461Z,21.50
2023-04-14T16:15:04.473Z,21.50
2023-04-14T16:17:37.191Z,21.60
2023-04-14T16:20:14.222Z,21.50
2023-04-14T16:25:33.039Z,21.50
2023-04-14T16:28:05.503Z,21.50
2023-04-14T16:30:38.313Z,21.50
2023-04-14T16:33:15.310Z,21.50
2023-04-14T16:35:51.194Z,21.50
2023-04-14T16:38:24.524Z,21.50
2023-04-14T16:41:00.083Z,21.50
2023-04-14T16:43:51.213Z,21.50
2023-04-14T16:46:27.843Z,21.50
2023-04-14T16:49:30.624Z,21.50
2023-04-14T16:52:06.134Z,21.40
2023-04-14T16:54:41.592Z,21.50
2023-04-14T16:57:13.425Z,21.50
2023-04-14T16:59:48.612Z,21.40
2023-04-14T17:02:20.812Z,21.50
2023-04-14T17:05:02.381Z,21.50
2023-04-14T17:07:39.396Z,21.50
2023-04-14T17:10:13.457Z,21.50
2023-04-14T17:12:45.096Z,21.50
2023-04-14T17:15:16.983Z,21.50
2023-04-14T17:17:48.964Z,21.50
2023-04-14T17:20:43.360Z,21.50
2023-04-14T17:23:16.431Z,21.50
2023-04-14T17:25:53.546Z,21.50
2023-04-14T17:28:28.515Z,21.40
2023-04-14T17:30:59.253Z,21.50
2023-04-14T17:33:30.631Z,21.50
2023-04-14T17:36:03.446Z,21.50
2023-04-14T17:38:36.710Z,21.50
2023-04-14T17:41:11.068Z,21.50
2023-04-14T17:43:46.936Z,21.50
2023-04-14T17:46:19.398Z,21.40
2023-04-14T17:48:51.297Z,21.30
2023-04-14T17:51:23.892Z,21.30
2023-04-14T17:53:57.362Z,21.20
2023-04-14T17:56:30.616Z,21.20
2023-04-14T17:59:22.396Z,21.20
2023-04-14T18:01:53.670Z,21.20
2023-04-14T18:04:25.656Z,21.20
2023-04-14T18:06:58.464Z,21.20
2023-04-14T18:09:30.638Z,21.10
2023-04-14T18:12:01.901Z,21.10
2023-04-14T18:14:34.494Z,21.00
2023-04-14T18:17:06.616Z,21.10
2023-04-14T18:19:39.021Z,21.10
2023-04-14T18:22:10.667Z,21.10
2023-04-14T18:29:49.408Z,21.20
2023-04-14T18:32:20.870Z,21.20
2023-04-14T18:34:52.194Z,21.20
2023-04-14T18:37:23.575Z,21.20
2023-04-14T18:39:54.984Z,21.20
2023-04-14T18:42:26.253Z,21.20
2023-04-14T18:44:57.782Z,21.20
2023-04-14T18:47:30.199Z,21.10
2023-04-14T18:50:01.811Z,21.10
2023-04-14T18:52:32.977Z,21.10
2023-04-14T18:55:04.870Z,21.00
2023-04-14T18:57:36.173Z,21.00
2023-04-14T19:00:08.030Z,21.00
2023-04-14T19:02:39.379Z,21.00
2023-04-14T19:05:11.930Z,21.10
2023-04-14T19:07:43.466Z,21.00
2023-04-14T19:10:14.685Z,21.00
2023-04-14T19:12:46.065Z,20.90
2023-04-14T19:15:17.707Z,20.90
2023-04-14T19:17:49.210Z,20.90
2023-04-14T19:20:20.463Z,20.80
2023-04-14T19:22:52.362Z,20.80
2023-04-14T19:25:23.960Z,20.80
2023-04-14T19:27:55.253Z,20.80
2023-04-14T19:30:27.120Z,20.80
2023-04-14T19:32:59.155Z,20.80
2023-04-14T19:35:30.685Z,20.80
2023-04-14T19:38:02.359Z,20.80
2023-04-14T19:40:34.056Z,20.70
2023-04-14T19:43:05.952Z,20.70
2023-04-14T19:45:37.175Z,20.70
2023-04-14T19:48:22.135Z,20.70
2023-04-14T19:50:55.951Z,20.70
2023-04-14T19:53:28.308Z,20.70
2023-04-14T19:56:01.058Z,20.60
2023-04-14T19:58:33.033Z,20.60
2023-04-14T20:01:04.255Z,20.70
2023-04-14T20:03:35.678Z,20.70
2023-04-14T20:06:07.635Z,20.70
2023-04-14T20:08:39.180Z,20.80
2023-04-14T20:11:12.017Z,20.80
2023-04-14T20:13:43.344Z,20.80
2023-04-14T20:16:14.824Z,20.80
2023-04-14T20:18:47.482Z,20.80
2023-04-14T20:21:19.331Z,20.90
2023-04-14T20:23:50.657Z,20.80
2023-04-14T20:26:22.381Z,20.80
2023-04-14T20:28:53.633Z,20.70
2023-04-14T20:31:26.603Z,20.70
2023-04-14T20:33:58.826Z,20.70
2023-04-14T20:36:33.325Z,20.60
2023-04-14T20:39:08.789Z,20.70
2023-04-14T20:41:40.116Z,20.60
2023-04-14T20:44:11.479Z,20.70
2023-04-14T20:46:43.418Z,20.60
2023-04-14T20:49:14.614Z,20.70
2023-04-14T20:51:48.143Z,20.60
2023-04-14T20:54:19.431Z,20.60
2023-04-14T20:56:51.927Z,20.50
2023-04-14T21:02:10.407Z,20.50
2023-04-14T21:04:42.325Z,20.50
2023-04-14T21:07:14.275Z,20.50
2023-04-14T21:09:46.476Z,20.40
2023-04-14T21:12:17.773Z,20.40
2023-04-14T21:15:28.977Z,20.40
2023-04-14T21:17:40.663Z,20.40
2023-04-14T21:20:13.570Z,20.40
2023-04-14T21:22:44.768Z,20.30
2023-04-14T21:25:18.311Z,20.10
2023-04-14T21:27:50.033Z,20.10
2023-04-14T21:30:21.190Z,20.20
2023-04-14T21:32:52.383Z,20.20
2023-04-14T21:35:23.716Z,20.10
2023-04-14T21:37:55.125Z,20.10
2023-04-14T21:40:26.597Z,20.10
2023-04-14T21:42:58.377Z,20.10
2023-04-14T21:45:30.048Z,20.10
2023-04-14T21:48:01.595Z,20.10
2023-04-14T21:50:33.304Z,20.10
2023-04-14T21:53:05.660Z,20.10
2023-04-14T21:55:38.927Z,20.10
2023-04-14T21:58:10.882Z,20.10
2023-04-14T22:00:43.250Z,20.10
2023-04-14T22:03:14.529Z,20.10
2023-04-14T22:05:45.796Z,20.10
2023-04-14T22:08:17.123Z,20.00
2023-04-14T22:10:50.220Z,20.00
2023-04-14T22:13:23.373Z,20.00
2023-04-14T22:15:56.815Z,20.10
2023-04-14T22:18:32.741Z,20.00
2023-04-14T22:21:04.827Z,20.10
2023-04-14T22:23:36.030Z,20.10
2023-04-14T22:26:07.325Z,20.10
2023-04-14T22:28:39.077Z,20.10
2023-04-14T22:31:11.297Z,20.10
2023-04-14T22:33:42.604Z,20.10
2023-04-14T22:36:13.988Z,20.20
2023-04-14T22:38:49.029Z,20.20
2023-04-14T22:41:21.003Z,20.10
2023-04-14T22:43:52.207Z,20.20
2023-04-14T22:46:23.332Z,20.20
2023-04-14T22:48:58.140Z,20.20
2023-04-14T22:51:29.627Z,20.20
2023-04-14T22:54:00.986Z,20.10
2023-04-14T22:56:32.242Z,20.20
2023-04-14T22:59:05.214Z,20.10
2023-04-14T23:01:36.903Z,20.20
2023-04-14T23:04:08.168Z,20.30
2023-04-14T23:06:40.562Z,20.20
2023-04-14T23:09:12.492Z,20.20
2023-04-14T23:11:44.050Z,20.40
2023-04-14T23:14:15.987Z,20.40
2023-04-14T23:16:47.161Z,20.40
2023-04-14T23:19:18.693Z,20.40
2023-04-14T23:21:51.097Z,20.30
2023-04-14T23:24:24.120Z,20.30
2023-04-14T23:26:56.272Z,20.40
2023-04-14T23:29:27.482Z,20.30
2023-04-14T23:31:58.659Z,20.20
2023-04-14T23:34:30.565Z,20.20
2023-04-14T23:37:02.196Z,20.20
2023-04-14T23:39:33.980Z,19.90
2023-04-14T23:42:06.023Z,19.90
2023-04-14T23:44:37.438Z,20.10
2023-04-14T23:47:09.120Z,20.10
2023-04-14T23:49:40.365Z,20.00
2023-04-14T23:52:11.541Z,20.10
2023-04-14T23:54:43.489Z,20.10
2023-04-14T23:57:16.210Z,20.10
2023-04-14T23:59:51.163Z,20.00
